Time;durP1;ratioP1;P1;durP2;ratioP2;P2;SDS_P1;SDS_P2;PMS_P1;PMS_P2;Temp;Humidity;BMP_temperature;BMP_pressure;BME280_temperature;BME280_humidity;BME280_pressure;Samples;Min_cycle;Max_cycle;Signal;HPM_P1;HPM_P2
2021/09/19 00:02:19;;;;;;;10.43;9.40;;;14.30;99.90;;;;;;5050679;28;20631;-66
2021/09/19 00:04:46;;;;;;;9.80;9.07;;;14.20;99.90;;;;;;5051433;28;20592;-66
2021/09/19 00:07:12;;;;;;;10.57;8.80;;;14.20;99.90;;;;;;5051362;28;20646;-66
2021/09/19 00:09:40;;;;;;;8.57;7.73;;;14.20;99.90;;;;;;5050715;28;20651;-66
2021/09/19 00:12:06;;;;;;;9.20;8.30;;;14.30;99.90;;;;;;5050307;28;20620;-66
2021/09/19 00:14:34;;;;;;;9.00;8.20;;;14.30;99.90;;;;;;5051360;28;20607;-65
2021/09/19 00:17:01;;;;;;;8.63;7.77;;;14.40;99.90;;;;;;5051321;28;21143;-66
2021/09/19 00:19:27;;;;;;;9.40;8.07;;;14.40;99.90;;;;;;5050516;28;20622;-67
2021/09/19 00:21:54;;;;;;;12.73;7.80;;;14.30;99.90;;;;;;5051219;28;20627;-67
2021/09/19 00:24:21;;;;;;;8.70;7.90;;;14.30;99.90;;;;;;5049576;28;20600;-67
2021/09/19 00:26:48;;;;;;;8.80;7.17;;;14.30;99.90;;;;;;5049223;28;20606;-67
2021/09/19 00:29:14;;;;;;;9.83;7.53;;;14.30;99.90;;;;;;5050207;28;20600;-67
2021/09/19 00:31:40;;;;;;;9.70;7.60;;;14.30;99.90;;;;;;5050772;28;20600;-67
2021/09/19 00:34:07;;;;;;;8.60;7.90;;;14.30;99.90;;;;;;5050355;28;20596;-67
2021/09/19 00:36:34;;;;;;;10.13;8.70;;;14.30;99.90;;;;;;5049825;28;21033;-67
2021/09/19 00:39:01;;;;;;;9.93;8.67;;;14.30;99.90;;;;;;5049104;28;20614;-67
2021/09/19 00:41:27;;;;;;;9.80;8.80;;;14.20;99.90;;;;;;5048049;28;20626;-67
2021/09/19 00:43:53;;;;;;;11.23;10.13;;;14.10;99.90;;;;;;5051201;28;20591;-67
2021/09/19 00:46:19;;;;;;;11.27;10.27;;;14.10;99.90;;;;;;5050023;28;20310;-67
2021/09/19 00:48:46;;;;;;;11.40;10.33;;;14.00;99.90;;;;;;5050803;28;20614;-67
2021/09/19 00:51:12;;;;;;;11.43;10.33;;;13.90;99.90;;;;;;5050687;28;20635;-67
2021/09/19 00:53:39;;;;;;;13.27;11.80;;;13.80;99.90;;;;;;5051712;28;20593;-67
2021/09/19 00:56:07;;;;;;;12.67;11.37;;;13.80;99.90;;;;;;5050312;28;20621;-67
2021/09/19 00:58:34;;;;;;;11.82;10.82;;;13.80;99.90;;;;;;5050767;28;21154;-67
2021/09/19 01:01:01;;;;;;;13.33;12.00;;;13.70;99.90;;;;;;5045715;28;20203;-66
2021/09/19 01:03:28;;;;;;;12.70;11.50;;;13.70;99.90;;;;;;5035166;28;20616;-65
2021/09/19 01:05:58;;;;;;;13.90;11.60;;;13.70;99.90;;;;;;5035003;28;20559;-65
2021/09/19 01:08:24;;;;;;;12.32;11.07;;;13.70;99.90;;;;;;5035177;28;20939;-65
2021/09/19 01:10:51;;;;;;;12.80;10.80;;;13.60;99.90;;;;;;5034449;28;20229;-65
2021/09/19 01:13:18;;;;;;;11.20;10.20;;;13.60;99.90;;;;;;5033922;28;20624;-65
2021/09/19 01:15:44;;;;;;;11.70;10.60;;;13.60;99.90;;;;;;5034586;28;20604;-65
2021/09/19 01:18:12;;;;;;;11.13;10.02;;;13.60;99.90;;;;;;5034685;28;20607;-65
2021/09/19 01:20:38;;;;;;;15.23;11.65;;;13.60;99.90;;;;;;5034554;28;20196;-65
2021/09/19 01:23:11;;;;;;;11.75;10.73;;;13.50;99.90;;;;;;5034463;28;20197;-65
2021/09/19 01:25:39;;;;;;;11.60;10.50;;;13.50;99.90;;;;;;5034886;28;20247;-65
2021/09/19 01:28:06;;;;;;;11.90;10.40;;;13.50;99.90;;;;;;5034310;28;20194;-65
2021/09/19 01:30:34;;;;;;;11.38;10.27;;;13.50;99.90;;;;;;5034388;28;20651;-65
2021/09/19 01:33:02;;;;;;;11.02;10.02;;;13.50;99.90;;;;;;5034656;28;20206;-65
2021/09/19 01:35:29;;;;;;;11.38;10.27;;;13.50;99.90;;;;;;5034213;28;20205;-65
2021/09/19 01:37:57;;;;;;;10.32;9.30;;;13.50;99.90;;;;;;5034247;28;20194;-65
2021/09/19 01:40:25;;;;;;;10.50;9.50;;;13.50;99.90;;;;;;5034366;28;20209;-65
2021/09/19 01:42:53;;;;;;;10.35;9.40;;;13.40;99.90;;;;;;5034122;28;20745;-65
2021/09/19 01:45:21;;;;;;;10.33;9.33;;;13.40;99.90;;;;;;5034086;28;20209;-65
2021/09/19 01:47:47;;;;;;;12.30;10.25;;;13.40;99.90;;;;;;5034453;28;20647;-65
2021/09/19 01:50:13;;;;;;;10.38;9.38;;;13.40;99.90;;;;;;5034124;28;20698;-65
2021/09/19 01:52:40;;;;;;;10.18;9.18;;;13.40;99.90;;;;;;5033866;28;20194;-65
2021/09/19 01:55:07;;;;;;;10.80;9.70;;;13.40;99.90;;;;;;5034132;28;20201;-65
2021/09/19 01:57:34;;;;;;;10.43;9.52;;;13.30;99.90;;;;;;5033891;28;20627;-65
2021/09/19 02:00:00;;;;;;;10.45;9.45;;;13.30;99.90;;;;;;5033922;28;20660;-65
2021/09/19 02:02:27;;;;;;;10.32;9.32;;;13.30;99.90;;;;;;5033991;28;20598;-65
2021/09/19 02:04:54;;;;;;;11.40;9.43;;;13.30;99.90;;;;;;5034103;28;20216;-65
2021/09/19 02:07:21;;;;;;;13.77;9.75;;;13.30;99.90;;;;;;5034073;28;20205;-65
2021/09/19 02:09:47;;;;;;;10.20;9.20;;;13.30;99.90;;;;;;5033682;28;20229;-65
2021/09/19 02:12:14;;;;;;;10.35;9.25;;;13.20;99.90;;;;;;5033593;28;20244;-65
2021/09/19 02:14:41;;;;;;;10.13;9.13;;;13.20;99.90;;;;;;5033864;28;20239;-65
2021/09/19 02:17:11;;;;;;;9.95;9.15;;;13.20;99.90;;;;;;5033405;28;20264;-65
2021/09/19 02:19:38;;;;;;;9.50;8.55;;;13.20;99.90;;;;;;5033615;28;20193;-65
2021/09/19 02:22:12;;;;;;;10.30;9.30;;;13.20;99.90;;;;;;5033605;28;20197;-65
2021/09/19 02:24:39;;;;;;;9.15;8.25;;;13.20;99.90;;;;;;5032413;28;20205;-65
2021/09/19 02:27:06;;;;;;;10.13;9.23;;;13.10;99.90;;;;;;5033962;28;20626;-65
2021/09/19 02:29:33;;;;;;;10.07;9.05;;;13.00;99.90;;;;;;5033232;28;20672;-65
2021/09/19 02:31:59;;;;;;;10.93;9.82;;;13.00;99.90;;;;;;5031910;28;20579;-65
2021/09/19 02:34:26;;;;;;;10.50;9.50;;;13.00;99.90;;;;;;5033625;28;20208;-65
2021/09/19 02:36:53;;;;;;;10.77;9.87;;;12.90;99.90;;;;;;5033858;28;20197;-65
2021/09/19 02:39:19;;;;;;;11.80;9.85;;;12.90;99.90;;;;;;5033647;28;20623;-65
2021/09/19 02:41:45;;;;;;;9.75;8.85;;;12.90;99.90;;;;;;5031738;28;20239;-65
2021/09/19 02:44:12;;;;;;;9.82;8.95;;;12.80;99.90;;;;;;5033300;28;20197;-65
2021/09/19 02:46:42;;;;;;;10.65;9.13;;;12.80;99.90;;;;;;5033115;28;20170;-65
2021/09/19 02:49:09;;;;;;;13.05;9.85;;;12.80;99.90;;;;;;5033161;28;20386;-65
2021/09/19 02:51:35;;;;;;;11.07;8.07;;;12.80;99.90;;;;;;5033158;28;20708;-65
2021/09/19 02:54:01;;;;;;;9.18;8.30;;;12.80;99.90;;;;;;5031840;28;20649;-65
2021/09/19 02:56:28;;;;;;;9.65;8.55;;;12.80;99.90;;;;;;5031907;28;20198;-65
2021/09/19 02:58:54;;;;;;;8.65;7.88;;;12.80;99.90;;;;;;5033031;28;20205;-65
2021/09/19 03:01:20;;;;;;;9.32;8.52;;;12.70;99.90;;;;;;5039741;28;20227;-65
2021/09/19 03:03:47;;;;;;;9.63;8.75;;;12.70;99.90;;;;;;5052384;28;20216;-65
2021/09/19 03:06:13;;;;;;;9.70;8.68;;;12.60;99.90;;;;;;5052402;28;20191;-65
2021/09/19 03:08:39;;;;;;;9.80;8.80;;;12.60;99.90;;;;;;5051180;28;20657;-65
2021/09/19 03:11:05;;;;;;;9.70;8.80;;;12.50;99.90;;;;;;5052419;28;20216;-65
2021/09/19 03:13:32;;;;;;;10.05;9.05;;;12.50;99.90;;;;;;5052584;28;20199;-65
2021/09/19 03:15:58;;;;;;;9.32;8.43;;;12.40;99.90;;;;;;5052814;28;20208;-65
2021/09/19 03:18:24;;;;;;;9.43;8.52;;;12.40;99.90;;;;;;5052855;28;20196;-65
2021/09/19 03:20:51;;;;;;;9.43;8.55;;;12.40;99.90;;;;;;5053089;28;20205;-65
2021/09/19 03:23:17;;;;;;;8.98;8.18;;;12.30;99.90;;;;;;5053159;28;20652;-65
2021/09/19 03:25:43;;;;;;;8.85;8.05;;;12.30;99.90;;;;;;5052879;28;20209;-65
2021/09/19 03:28:10;;;;;;;10.07;8.38;;;12.30;99.90;;;;;;5051712;28;20219;-65
2021/09/19 03:30:36;;;;;;;11.20;9.07;;;12.30;99.90;;;;;;5052702;28;20683;-65
2021/09/19 03:33:02;;;;;;;10.27;9.13;;;12.20;99.90;;;;;;5053002;28;20641;-65
2021/09/19 03:35:29;;;;;;;9.50;8.60;;;12.20;99.90;;;;;;5051363;28;20275;-65
2021/09/19 03:37:55;;;;;;;10.10;9.10;;;12.20;99.90;;;;;;5055849;28;20199;-65
2021/09/19 03:40:24;;;;;;;8.52;7.63;;;12.20;99.90;;;;;;5056577;28;20731;-65
2021/09/19 03:42:52;;;;;;;8.77;7.88;;;12.20;99.90;;;;;;5056312;28;20663;-65
2021/09/19 03:45:18;;;;;;;8.50;7.70;;;12.20;99.90;;;;;;5056582;28;20311;-65
2021/09/19 03:47:45;;;;;;;8.40;7.60;;;12.20;99.90;;;;;;5054520;28;20221;-65
2021/09/19 03:50:12;;;;;;;7.32;6.63;;;12.10;99.90;;;;;;5055785;28;20227;-65
2021/09/19 03:52:39;;;;;;;9.48;7.93;;;12.10;99.90;;;;;;5056077;28;20192;-65
2021/09/19 03:55:06;;;;;;;9.90;8.00;;;12.10;99.90;;;;;;5056328;28;20562;-65
2021/09/19 03:57:32;;;;;;;7.40;6.70;;;12.10;99.90;;;;;;5054619;28;20208;-65
2021/09/19 03:59:58;;;;;;;9.85;8.00;;;12.10;99.90;;;;;;5054433;28;20200;-65
2021/09/19 04:02:24;;;;;;;8.30;7.50;;;12.10;99.90;;;;;;5055618;28;20242;-65
2021/09/19 04:04:53;;;;;;;7.47;6.78;;;12.10;99.90;;;;;;5056079;28;20204;-65
2021/09/19 04:07:20;;;;;;;7.90;7.10;;;12.00;99.90;;;;;;5055719;28;20196;-65
2021/09/19 04:09:47;;;;;;;7.55;6.85;;;12.10;99.90;;;;;;5055715;28;20212;-65
2021/09/19 04:12:13;;;;;;;9.40;7.90;;;12.10;99.90;;;;;;5055850;28;20228;-65
2021/09/19 04:14:41;;;;;;;7.60;7.00;;;12.00;99.90;;;;;;5054476;28;20209;-65
2021/09/19 04:17:10;;;;;;;7.32;6.60;;;12.10;99.90;;;;;;5055621;28;20204;-65
2021/09/19 04:19:36;;;;;;;7.18;6.57;;;12.00;99.90;;;;;;5056137;28;20212;-65
2021/09/19 04:22:03;;;;;;;8.07;7.28;;;12.00;99.90;;;;;;5055691;28;20204;-65
2021/09/19 04:24:29;;;;;;;7.00;6.35;;;12.00;99.90;;;;;;5055419;28;20199;-65
2021/09/19 04:26:56;;;;;;;8.20;7.40;;;12.00;99.90;;;;;;5055611;28;20207;-65
2021/09/19 04:29:22;;;;;;;9.48;8.63;;;12.10;99.90;;;;;;5055647;28;20203;-65
2021/09/19 04:31:48;;;;;;;9.85;6.57;;;12.00;99.90;;;;;;5055201;28;20668;-65
2021/09/19 04:34:14;;;;;;;7.45;6.75;;;12.10;99.90;;;;;;5055482;28;20189;-65
2021/09/19 04:36:41;;;;;;;7.95;7.15;;;12.10;99.90;;;;;;5055247;28;20203;-65
2021/09/19 04:39:07;;;;;;;9.05;6.35;;;12.10;99.90;;;;;;5055393;28;20192;-65
2021/09/19 04:41:34;;;;;;;7.50;6.80;;;12.00;99.90;;;;;;5055038;28;20246;-65
2021/09/19 04:44:00;;;;;;;6.78;6.18;;;12.00;99.90;;;;;;5054968;28;20219;-65
2021/09/19 04:46:28;;;;;;;7.65;6.95;;;12.00;99.90;;;;;;5054923;28;20201;-65
2021/09/19 04:48:56;;;;;;;6.68;6.07;;;11.90;99.90;;;;;;5053864;28;20228;-65
2021/09/19 04:51:23;;;;;;;8.18;6.97;;;12.00;99.90;;;;;;5055079;28;20741;-65
2021/09/19 04:53:50;;;;;;;7.70;6.82;;;11.90;99.90;;;;;;5054873;28;20200;-65
2021/09/19 04:56:16;;;;;;;6.70;6.10;;;11.90;99.90;;;;;;5054858;28;20525;-65
2021/09/19 04:58:42;;;;;;;6.50;6.00;;;11.80;99.90;;;;;;5054981;28;20207;-65
2021/09/19 05:01:10;;;;;;;7.32;6.63;;;11.80;99.90;;;;;;5054923;28;20267;-65
2021/09/19 05:03:37;;;;;;;15.13;7.63;;;11.80;99.90;;;;;;5054743;28;20270;-65
2021/09/19 05:06:03;;;;;;;10.65;7.22;;;11.80;99.90;;;;;;5054695;28;20192;-65
2021/09/19 05:08:29;;;;;;;7.63;6.93;;;11.80;99.90;;;;;;5054601;28;20192;-65
2021/09/19 05:10:56;;;;;;;7.57;6.72;;;11.70;99.90;;;;;;5054433;28;20668;-65
2021/09/19 05:13:22;;;;;;;7.32;6.30;;;11.70;99.90;;;;;;5054429;28;20288;-65
2021/09/19 05:15:48;;;;;;;8.07;6.82;;;11.70;99.90;;;;;;5053142;28;20204;-65
2021/09/19 05:18:15;;;;;;;7.38;6.57;;;11.70;99.90;;;;;;5054648;28;20656;-64
2021/09/19 05:20:41;;;;;;;6.78;6.18;;;11.70;99.90;;;;;;5054996;28;20204;-65
2021/09/19 05:23:07;;;;;;;7.35;6.72;;;11.70;99.90;;;;;;5054497;28;20656;-65
2021/09/19 05:25:35;;;;;;;6.25;5.75;;;11.70;99.90;;;;;;5054074;28;20254;-65
2021/09/19 05:28:02;;;;;;;7.25;6.63;;;11.70;99.90;;;;;;5054056;28;20209;-65
2021/09/19 05:30:28;;;;;;;7.70;5.82;;;11.70;99.90;;;;;;5053407;28;20561;-65
2021/09/19 05:32:54;;;;;;;6.72;6.13;;;11.80;99.90;;;;;;5066550;28;20196;-65
2021/09/19 05:35:21;;;;;;;6.65;6.15;;;11.80;99.90;;;;;;5068555;28;20199;-65
2021/09/19 05:37:47;;;;;;;7.28;6.60;;;11.80;99.90;;;;;;5064781;28;20199;-65
2021/09/19 05:40:14;;;;;;;7.45;6.75;;;11.80;99.90;;;;;;5073331;28;20197;-65
2021/09/19 05:42:41;;;;;;;7.28;6.70;;;11.80;99.90;;;;;;5073272;28;20220;-65
2021/09/19 05:45:08;;;;;;;6.85;6.32;;;11.90;99.90;;;;;;5073220;28;20200;-65
2021/09/19 05:47:35;;;;;;;6.97;6.20;;;11.90;99.90;;;;;;5073545;28;20655;-65
2021/09/19 05:50:01;;;;;;;6.63;6.13;;;11.90;99.90;;;;;;5073098;28;20199;-65
2021/09/19 05:52:27;;;;;;;9.40;5.60;;;11.90;99.90;;;;;;5053309;28;20224;-65
2021/09/19 05:54:54;;;;;;;6.25;5.75;;;12.00;99.90;;;;;;5053087;28;20205;-65
2021/09/19 05:57:21;;;;;;;6.63;6.13;;;12.10;99.90;;;;;;5053028;28;20189;-65
2021/09/19 05:59:48;;;;;;;5.95;5.55;;;12.10;99.90;;;;;;5052753;28;20201;-65
2021/09/19 06:02:15;;;;;;;6.72;6.13;;;12.10;99.90;;;;;;5052916;28;20192;-65
2021/09/19 06:04:46;;;;;;;8.00;6.22;;;12.20;99.90;;;;;;5053200;28;20200;-65
2021/09/19 06:07:12;;;;;;;6.53;5.88;;;12.20;99.90;;;;;;5052767;28;20204;-65
2021/09/19 06:09:38;;;;;;;5.75;5.25;;;12.20;99.90;;;;;;5053038;28;20207;-65
2021/09/19 06:12:05;;;;;;;5.88;5.45;;;12.30;99.90;;;;;;5057248;28;20219;-65
2021/09/19 06:14:31;;;;;;;6.68;6.00;;;12.40;99.90;;;;;;5073001;28;20200;-65
2021/09/19 06:16:57;;;;;;;6.10;5.70;;;12.50;99.90;;;;;;5073358;28;20200;-65
2021/09/19 06:19:26;;;;;;;7.47;6.22;;;12.50;99.90;;;;;;5072806;28;20204;-65
2021/09/19 06:21:58;;;;;;;6.47;5.88;;;12.50;99.90;;;;;;5072720;28;20720;-65
2021/09/19 06:24:28;;;;;;;6.65;5.90;;;12.60;99.90;;;;;;5057815;28;20235;-65
2021/09/19 06:26:56;;;;;;;5.72;5.22;;;12.60;99.90;;;;;;5073134;28;20632;-65
2021/09/19 06:29:22;;;;;;;6.63;5.40;;;12.70;99.90;;;;;;5072508;28;20208;-65
2021/09/19 06:31:48;;;;;;;6.45;5.32;;;12.70;99.90;;;;;;5072949;28;20227;-65
2021/09/19 06:34:15;;;;;;;6.00;5.43;;;12.80;99.90;;;;;;5072823;28;20192;-65
2021/09/19 06:36:41;;;;;;;8.00;5.97;;;12.90;99.90;;;;;;5072630;28;20196;-65
2021/09/19 06:39:08;;;;;;;11.77;5.55;;;13.00;99.90;;;;;;5072605;28;20192;-65
2021/09/19 06:41:37;;;;;;;6.25;5.20;;;13.10;99.90;;;;;;5072593;28;20219;-65
2021/09/19 06:44:03;;;;;;;5.63;5.22;;;13.20;99.90;;;;;;5072597;28;20227;-65
2021/09/19 06:46:31;;;;;;;5.47;5.07;;;13.40;99.90;;;;;;5072725;28;20199;-64
2021/09/19 06:48:58;;;;;;;6.28;5.63;;;13.50;99.90;;;;;;5072819;28;20223;-64
2021/09/19 06:51:25;;;;;;;5.93;5.43;;;13.60;99.90;;;;;;5059539;28;20621;-65
2021/09/19 06:53:54;;;;;;;5.80;5.30;;;13.60;99.90;;;;;;5052298;28;20189;-65
2021/09/19 06:56:21;;;;;;;8.00;5.10;;;13.70;99.90;;;;;;5052675;28;20641;-65
2021/09/19 06:58:48;;;;;;;7.30;5.20;;;13.70;99.90;;;;;;5053339;28;20188;-64
2021/09/19 07:01:15;;;;;;;9.67;4.53;;;13.90;99.90;;;;;;5053552;28;20208;-64
2021/09/19 07:03:43;;;;;;;7.60;5.10;;;14.00;99.90;;;;;;5053360;28;20624;-65
2021/09/19 07:06:09;;;;;;;5.57;5.13;;;14.00;99.90;;;;;;5053282;28;20216;-64
2021/09/19 07:08:36;;;;;;;5.73;5.23;;;14.00;99.90;;;;;;5053211;28;20590;-64
2021/09/19 07:11:03;;;;;;;5.93;4.28;;;14.00;99.90;;;;;;5053353;28;21055;-65
2021/09/19 07:13:29;;;;;;;5.43;5.03;;;14.10;99.90;;;;;;5056748;28;20192;-65
2021/09/19 07:15:55;;;;;;;7.47;4.57;;;14.40;99.90;;;;;;5056662;28;20591;-65
2021/09/19 07:18:23;;;;;;;5.97;5.40;;;14.50;99.90;;;;;;5056834;28;20651;-65
2021/09/19 07:20:53;;;;;;;4.83;4.53;;;14.30;99.90;;;;;;5056848;28;20590;-65
2021/09/19 07:23:20;;;;;;;5.50;4.80;;;14.40;99.90;;;;;;5055191;28;20623;-65
2021/09/19 07:25:47;;;;;;;5.32;4.80;;;14.60;99.90;;;;;;5056078;28;20584;-66
2021/09/19 07:28:13;;;;;;;5.43;4.60;;;14.50;99.90;;;;;;5075150;28;20200;-63
2021/09/19 07:30:40;;;;;;;5.60;5.10;;;14.70;99.90;;;;;;5076337;28;20646;-65
2021/09/19 07:33:07;;;;;;;6.87;5.20;;;14.80;99.90;;;;;;5075885;28;20613;-65
2021/09/19 07:35:34;;;;;;;5.40;4.90;;;14.90;99.90;;;;;;5075968;28;20615;-65
2021/09/19 07:38:01;;;;;;;8.23;6.40;;;14.80;99.90;;;;;;5075862;28;20600;-65
2021/09/19 07:40:28;;;;;;;5.90;5.40;;;14.80;99.90;;;;;;5059405;28;20634;-65
2021/09/19 07:42:55;;;;;;;8.50;5.10;;;14.80;99.90;;;;;;5059442;28;20628;-65
2021/09/19 07:45:21;;;;;;;5.97;5.20;;;14.80;99.90;;;;;;5056361;28;20566;-65
2021/09/19 07:47:54;;;;;;;5.33;4.83;;;14.90;99.90;;;;;;5056322;28;20642;-65
2021/09/19 07:50:23;;;;;;;6.87;5.50;;;15.10;99.90;;;;;;5056319;28;21113;-65
2021/09/19 07:52:50;;;;;;;5.33;4.87;;;15.10;99.90;;;;;;5055765;28;20665;-64
2021/09/19 07:55:18;;;;;;;6.27;5.67;;;15.10;99.90;;;;;;5056164;28;20596;-65
2021/09/19 07:57:45;;;;;;;4.97;4.60;;;15.20;99.90;;;;;;5056221;28;20604;-64
2021/09/19 08:00:12;;;;;;;7.77;5.57;;;15.20;99.90;;;;;;5056105;28;20614;-64
2021/09/19 08:02:39;;;;;;;6.10;5.37;;;15.40;99.90;;;;;;5056067;28;20577;-64
2021/09/19 08:05:07;;;;;;;6.10;5.40;;;15.40;99.90;;;;;;5056105;28;20618;-65
2021/09/19 08:07:33;;;;;;;7.00;5.33;;;15.60;99.90;;;;;;5056183;28;20565;-65
2021/09/19 08:10:01;;;;;;;5.97;5.47;;;15.60;99.90;;;;;;5055704;28;21183;-64
2021/09/19 08:12:28;;;;;;;9.90;5.77;;;15.70;99.90;;;;;;5056315;28;20659;-64
2021/09/19 08:14:54;;;;;;;5.90;4.43;;;15.60;99.90;;;;;;5055788;28;20595;-64
2021/09/19 08:17:20;;;;;;;5.50;4.90;;;15.90;99.90;;;;;;5055533;28;20626;-64
2021/09/19 08:19:46;;;;;;;6.07;5.57;;;15.90;99.90;;;;;;5055645;28;20588;-64
2021/09/19 08:22:13;;;;;;;5.50;4.93;;;16.00;99.90;;;;;;5055839;28;20604;-64
2021/09/19 08:24:39;;;;;;;6.83;4.80;;;16.10;99.90;;;;;;5055617;28;20598;-64
2021/09/19 08:27:07;;;;;;;4.87;4.57;;;16.10;99.90;;;;;;5055475;28;20595;-64
2021/09/19 08:29:35;;;;;;;5.57;5.07;;;16.30;99.90;;;;;;5055762;28;20632;-64
2021/09/19 08:32:02;;;;;;;6.43;4.33;;;16.40;99.90;;;;;;5055660;28;20997;-64
2021/09/19 08:34:30;;;;;;;5.00;4.50;;;16.60;99.90;;;;;;5055650;28;20610;-64
2021/09/19 08:36:56;;;;;;;4.80;4.40;;;16.60;99.90;;;;;;5055485;28;21132;-64
2021/09/19 08:39:23;;;;;;;5.20;4.80;;;16.80;99.90;;;;;;5055702;28;20626;-64
2021/09/19 08:41:50;;;;;;;4.90;4.60;;;16.90;99.90;;;;;;5055127;28;20624;-63
2021/09/19 08:44:18;;;;;;;4.80;4.40;;;16.90;99.90;;;;;;5055193;28;20675;-63
2021/09/19 08:46:45;;;;;;;5.67;4.90;;;17.20;99.90;;;;;;5055006;28;20630;-66
2021/09/19 08:49:14;;;;;;;6.33;4.53;;;17.10;99.90;;;;;;5055385;28;21141;-64
2021/09/19 08:51:40;;;;;;;4.53;4.23;;;17.10;99.90;;;;;;5054873;28;20630;-64
2021/09/19 08:54:08;;;;;;;5.30;4.90;;;17.10;99.90;;;;;;5053967;28;21135;-64
2021/09/19 08:56:35;;;;;;;5.70;4.60;;;17.30;99.90;;;;;;5055390;28;20924;-64
2021/09/19 08:59:02;;;;;;;5.03;4.63;;;17.10;99.90;;;;;;5054869;28;20602;-65
2021/09/19 09:01:28;;;;;;;4.67;4.27;;;17.20;99.90;;;;;;5054836;28;20595;-64
2021/09/19 09:04:03;;;;;;;4.30;4.00;;;17.40;99.90;;;;;;5054843;28;20591;-64
2021/09/19 09:06:38;;;;;;;4.90;4.50;;;17.30;99.90;;;;;;5055210;28;20766;-65
2021/09/19 09:09:17;;;;;;;4.93;4.63;;;17.30;99.90;;;;;;5055160;28;21141;-64
2021/09/19 09:12:06;;;;;;;5.20;4.70;;;17.20;99.90;;;;;;5054853;28;20678;-64
2021/09/19 09:14:47;;;;;;;7.00;5.27;;;17.50;99.90;;;;;;5054810;28;20666;-64
2021/09/19 09:17:15;;;;;;;4.87;4.30;;;17.70;99.90;;;;;;5054918;28;20594;-64
2021/09/19 09:19:43;;;;;;;4.73;3.97;;;17.80;99.90;;;;;;5054655;28;20605;-64
2021/09/19 09:22:10;;;;;;;4.00;3.70;;;18.00;99.90;;;;;;5055008;28;21165;-64
2021/09/19 09:24:41;;;;;;;4.63;4.30;;;18.00;99.90;;;;;;5054918;28;20646;-65
2021/09/19 09:27:18;;;;;;;5.03;4.50;;;18.10;99.90;;;;;;5054790;28;20623;-64
2021/09/19 09:30:05;;;;;;;5.13;4.73;;;18.10;99.90;;;;;;5055037;28;21167;-65
2021/09/19 09:32:31;;;;;;;4.80;4.50;;;17.90;99.90;;;;;;5054636;28;20631;-65
2021/09/19 09:35:16;;;;;;;4.83;4.50;;;17.80;99.90;;;;;;5053575;28;20602;-65
2021/09/19 09:37:42;;;;;;;4.43;4.13;;;18.20;99.90;;;;;;5054208;28;20615;-65
2021/09/19 09:40:25;;;;;;;5.30;4.10;;;18.30;99.90;;;;;;5053997;28;20623;-64
2021/09/19 09:43:04;;;;;;;4.03;3.73;;;18.50;99.90;;;;;;5054115;28;20680;-64
2021/09/19 09:45:31;;;;;;;4.20;3.93;;;18.50;99.40;;;;;;5054529;28;20611;-64
2021/09/19 09:47:58;;;;;;;4.00;3.70;;;18.60;99.90;;;;;;5054264;28;21212;-64
2021/09/19 09:50:26;;;;;;;3.27;3.07;;;18.40;99.90;;;;;;5054248;28;20602;-64
2021/09/19 09:53:08;;;;;;;3.87;3.57;;;18.80;99.50;;;;;;5054611;28;20659;-64
2021/09/19 09:55:34;;;;;;;4.20;3.90;;;19.00;71.20;;;;;;5053961;28;20552;-65
2021/09/19 09:58:13;;;;;;;4.07;3.77;;;19.00;50.50;;;;;;5053841;28;21143;-65
2021/09/19 10:00:41;;;;;;;4.37;4.07;;;19.30;18.90;;;;;;5054368;28;20623;-65
2021/09/19 10:03:08;;;;;;;4.40;4.10;;;19.20;1.00;;;;;;5053961;28;20622;-65
2021/09/19 10:05:34;;;;;;;3.87;3.67;;;19.10;1.00;;;;;;5053714;28;20587;-65
2021/09/19 10:08:00;;;;;;;4.20;3.90;;;19.20;1.70;;;;;;5054008;28;20615;-65
2021/09/19 10:10:29;;;;;;;3.93;3.63;;;19.30;1.00;;;;;;5054089;28;20623;-64
2021/09/19 10:12:58;;;;;;;4.30;4.00;;;19.10;1.00;;;;;;5052286;28;20666;-64
2021/09/19 10:15:27;;;;;;;3.70;3.50;;;19.30;1.00;;;;;;5053427;28;21141;-65
2021/09/19 10:17:54;;;;;;;3.17;3.00;;;19.40;1.00;;;;;;5053773;28;20642;-65
2021/09/19 10:20:35;;;;;;;3.70;3.50;;;19.60;1.00;;;;;;5053885;28;20619;-65
2021/09/19 10:23:20;;;;;;;3.40;3.20;;;19.80;1.00;;;;;;5053422;28;20568;-65
2021/09/19 10:25:54;;;;;;;4.10;3.80;;;19.80;1.00;;;;;;5053684;28;20587;-65
2021/09/19 10:28:25;;;;;;;5.13;4.37;;;20.00;1.00;;;;;;5053792;28;20579;-65
2021/09/19 10:31:13;;;;;;;4.33;4.13;;;19.80;1.00;;;;;;5053618;28;20677;-65
2021/09/19 10:33:41;;;;;;;4.90;4.50;;;19.90;1.00;;;;;;5053508;28;20607;-65
2021/09/19 10:36:23;;;;;;;4.13;3.93;;;20.00;1.00;;;;;;5053474;28;20587;-65
2021/09/19 10:38:50;;;;;;;4.77;4.40;;;19.90;1.00;;;;;;5053316;28;21001;-64
2021/09/19 10:41:21;;;;;;;3.90;3.60;;;20.20;1.00;;;;;;5053209;28;20635;-65
2021/09/19 10:43:59;;;;;;;4.30;4.00;;;20.20;1.00;;;;;;5053128;28;20663;-65
2021/09/19 10:46:34;;;;;;;4.20;3.90;;;20.40;1.00;;;;;;5056176;28;20610;-65
2021/09/19 10:49:19;;;;;;;4.23;3.93;;;20.70;1.00;;;;;;5057296;28;20614;-65
2021/09/19 10:52:00;;;;;;;4.27;4.07;;;20.80;1.00;;;;;;5057632;28;20716;-65
2021/09/19 10:54:42;;;;;;;6.00;4.23;;;21.20;1.00;;;;;;5057437;28;20586;-65
2021/09/19 10:57:14;;;;;;;4.40;4.00;;;20.70;1.00;;;;;;5057673;28;20622;-65
2021/09/19 11:00:08;;;;;;;4.83;3.80;;;20.70;1.00;;;;;;5057057;28;20874;-65
2021/09/19 11:02:36;;;;;;;4.10;3.80;;;21.00;1.00;;;;;;5056837;28;20625;-65
2021/09/19 11:05:29;;;;;;;4.00;3.60;;;21.40;1.00;;;;;;5057471;28;20615;-65
2021/09/19 11:08:07;;;;;;;4.60;4.30;;;21.60;21.60;;;;;;5056976;28;20615;-65
2021/09/19 11:10:55;;;;;;;4.53;4.23;;;21.90;24.10;;;;;;5057135;28;20583;-65
2021/09/19 11:13:30;;;;;;;3.90;3.70;;;21.80;27.40;;;;;;5057402;28;20654;-65
2021/09/19 11:16:02;;;;;;;8.60;4.60;;;21.40;14.90;;;;;;5055999;28;20622;-65
2021/09/19 11:18:31;;;;;;;4.03;3.73;;;21.60;16.80;;;;;;5057627;28;20614;-65
2021/09/19 11:21:27;;;;;;;3.73;3.53;;;21.70;24.70;;;;;;5056681;28;20615;-65
2021/09/19 11:23:57;;;;;;;4.10;3.90;;;22.00;56.40;;;;;;5052154;28;20631;-65
2021/09/19 11:26:26;;;;;;;4.50;4.20;;;21.60;16.70;;;;;;5056984;28;20551;-65
2021/09/19 11:29:01;;;;;;;4.37;3.97;;;22.10;37.70;;;;;;5056506;28;20619;-65
2021/09/19 11:31:27;;;;;;;3.90;3.70;;;22.90;99.90;;;;;;5056651;28;20585;-65
2021/09/19 11:33:54;;;;;;;4.07;3.80;;;24.00;99.90;;;;;;5056745;28;20970;-66
2021/09/19 11:36:21;;;;;;;4.57;4.27;;;23.60;99.90;;;;;;5056850;28;20619;-65
2021/09/19 11:38:51;;;;;;;6.30;3.63;;;22.90;99.90;;;;;;5056714;28;20610;-65
2021/09/19 11:41:20;;;;;;;4.23;3.93;;;23.70;99.90;;;;;;5057209;28;20650;-65
2021/09/19 11:43:48;;;;;;;4.20;3.90;;;23.90;99.90;;;;;;5055872;28;20635;-65
2021/09/19 11:46:18;;;;;;;4.27;3.97;;;22.90;99.90;;;;;;5056413;28;20611;-65
2021/09/19 11:48:46;;;;;;;3.97;3.77;;;23.10;99.90;;;;;;5056610;28;20642;-65
2021/09/19 11:51:16;;;;;;;3.60;3.37;;;22.70;99.90;;;;;;5056507;28;20619;-66
2021/09/19 11:53:48;;;;;;;3.27;3.17;;;22.70;99.90;;;;;;5056184;28;20990;-65
2021/09/19 11:56:15;;;;;;;3.17;2.97;;;23.40;99.90;;;;;;5056384;28;20617;-65
2021/09/19 11:58:44;;;;;;;2.83;2.73;;;24.30;99.90;;;;;;5055468;28;20595;-65
2021/09/19 12:01:10;;;;;;;3.60;3.40;;;24.10;99.90;;;;;;5056512;28;20622;-65
2021/09/19 12:03:39;;;;;;;5.27;3.87;;;23.40;99.90;;;;;;5056045;28;20965;-65
2021/09/19 12:06:07;;;;;;;3.33;3.13;;;23.50;99.90;;;;;;5056474;28;20649;-65
2021/09/19 12:08:42;;;;;;;3.73;3.30;;;23.60;99.90;;;;;;5056265;28;20590;-66
2021/09/19 12:11:11;;;;;;;2.70;2.60;;;23.20;99.90;;;;;;5055775;28;20718;-66
2021/09/19 12:13:46;;;;;;;2.70;2.60;;;24.70;99.90;;;;;;5055744;28;21031;-66
2021/09/19 12:16:22;;;;;;;2.90;2.73;;;25.80;99.90;;;;;;5056603;28;20622;-65
2021/09/19 12:18:50;;;;;;;3.10;3.00;;;26.30;99.90;;;;;;5056421;28;20619;-65
2021/09/19 12:21:24;;;;;;;2.93;2.83;;;27.10;99.90;;;;;;5055602;28;20615;-65
2021/09/19 12:23:54;;;;;;;5.40;3.50;;;26.80;99.90;;;;;;5056245;28;20622;-65
2021/09/19 12:26:31;;;;;;;3.43;2.83;;;26.60;99.90;;;;;;5054533;28;20962;-64
2021/09/19 12:29:03;;;;;;;2.83;2.63;;;25.90;99.90;;;;;;5055767;28;20645;-64
2021/09/19 12:31:42;;;;;;;2.97;2.83;;;25.40;99.90;;;;;;5055835;28;20838;-64
2021/09/19 12:34:20;;;;;;;4.00;3.80;;;24.30;99.90;;;;;;5055803;28;20702;-64
2021/09/19 12:36:49;;;;;;;3.60;3.30;;;23.80;99.90;;;;;;5055586;28;20619;-64
2021/09/19 12:39:23;;;;;;;3.43;3.10;;;23.10;99.90;;;;;;5055633;28;20635;-64
2021/09/19 12:41:53;;;;;;;3.20;3.00;;;22.90;99.90;;;;;;5055984;28;20642;-66
2021/09/19 12:44:26;;;;;;;3.17;2.90;;;22.90;99.90;;;;;;5056164;28;20685;-66
2021/09/19 12:46:57;;;;;;;3.23;2.93;;;22.60;99.90;;;;;;5055503;28;20562;-65
2021/09/19 12:49:29;;;;;;;3.30;3.10;;;22.40;99.90;;;;;;5055562;28;20588;-65
2021/09/19 12:52:09;;;;;;;2.77;2.67;;;22.60;99.90;;;;;;5055175;28;20558;-66
2021/09/19 12:54:46;;;;;;;2.40;2.30;;;22.70;99.90;;;;;;5055175;28;20583;-66